Huvudsida
METAR-TAF:

METAR-TAF

Flygplatser :

Kuwaits internationella flygplats

Kuwait, Kuwait

latitud: 29-13N, longitud: 047-59E, höjd: 55 m

Aktuellt väderrapport

Denna rapport gjordes för 21 minuter sedan, klockan 14:00 UTC
Vind 12 kt från nord/nordväst
Temperatur 48°C
Fuktighet 6%
Tryck 1001 hPa
Sikt 10 km eller mer
Inga moln under 1 500 m eller inga cumulonimbus

METAR: OKBK 251400Z 34012KT CAVOK 48/02 Q1001 NOSIG

Tid: 17:21 (14:21 UTC)

Väderprognos

Denna rapport gjordes för 3 timmar och 36 minuter sedan, klockan 10:45 UTC
Prognos gäller från 25 kl. 12 UTC till 26 kl. 18 UTC
Vind 12 kt från nord/nordväst
Sikt: 7000 m
Klar himmel

TAF: OKBK 251045Z 2512/2618 34012KT 7000 SKC

Aktuella väderrapporter och prognoser från 4000 flygplatser (METAR- och TAF-rapporter).

De tillgängliga stationerna syns som gula och röda prickar på kartan.

För musen över prickarna för att se namnen på stationerna.

Klicka sedan för att få väderrapporter och prognoser.

För att ändra kartan: Klicka på de gröna knapparna med ett svart kors på för att zooma in; den gröna knappen med ett streck på för att zooma ut; eller på de gröna pilarna för angränsande kartor.


METAR-TAF: